sensor_id;sensor_type;location;lat;lon;timestamp;P1;durP1;ratioP1;P2;durP2;ratioP2
76850;SDS011;65824;43.726;20.692;2023-12-22T00:01:30;32.00;;;17.05;;
76850;SDS011;65824;43.726;20.692;2023-12-22T00:03:56;29.98;;;15.70;;
76850;SDS011;65824;43.726;20.692;2023-12-22T00:06:22;32.58;;;16.58;;
76850;SDS011;65824;43.726;20.692;2023-12-22T00:08:47;29.98;;;14.70;;
76850;SDS011;65824;43.726;20.692;2023-12-22T00:11:14;27.38;;;15.40;;
76850;SDS011;65824;43.726;20.692;2023-12-22T00:13:41;28.40;;;15.15;;
76850;SDS011;65824;43.726;20.692;2023-12-22T00:16:07;28.85;;;15.27;;
76850;SDS011;65824;43.726;20.692;2023-12-22T00:18:33;31.55;;;16.33;;
76850;SDS011;65824;43.726;20.692;2023-12-22T00:20:59;33.85;;;16.20;;
76850;SDS011;65824;43.726;20.692;2023-12-22T00:23:24;29.27;;;14.65;;
76850;SDS011;65824;43.726;20.692;2023-12-22T00:25:51;29.55;;;14.55;;
76850;SDS011;65824;43.726;20.692;2023-12-22T00:28:17;31.83;;;16.42;;
76850;SDS011;65824;43.726;20.692;2023-12-22T00:30:42;34.42;;;15.73;;
76850;SDS011;65824;43.726;20.692;2023-12-22T00:33:08;30.70;;;15.60;;
76850;SDS011;65824;43.726;20.692;2023-12-22T00:35:34;27.20;;;14.05;;
76850;SDS011;65824;43.726;20.692;2023-12-22T00:38:00;30.95;;;14.50;;
76850;SDS011;65824;43.726;20.692;2023-12-22T00:40:27;31.98;;;16.70;;
76850;SDS011;65824;43.726;20.692;2023-12-22T00:42:53;27.73;;;14.52;;
76850;SDS011;65824;43.726;20.692;2023-12-22T00:45:19;29.63;;;15.65;;
76850;SDS011;65824;43.726;20.692;2023-12-22T00:47:45;29.40;;;14.90;;
76850;SDS011;65824;43.726;20.692;2023-12-22T00:50:10;35.67;;;16.90;;
76850;SDS011;65824;43.726;20.692;2023-12-22T00:52:37;36.30;;;17.15;;
76850;SDS011;65824;43.726;20.692;2023-12-22T00:55:02;34.65;;;15.60;;
76850;SDS011;65824;43.726;20.692;2023-12-22T00:57:28;31.92;;;15.68;;
76850;SDS011;65824;43.726;20.692;2023-12-22T00:59:55;32.20;;;14.90;;
76850;SDS011;65824;43.726;20.692;2023-12-22T01:02:20;36.08;;;17.08;;
76850;SDS011;65824;43.726;20.692;2023-12-22T01:04:46;34.40;;;16.17;;
76850;SDS011;65824;43.726;20.692;2023-12-22T01:07:12;29.35;;;15.95;;
76850;SDS011;65824;43.726;20.692;2023-12-22T01:09:39;27.80;;;14.45;;
76850;SDS011;65824;43.726;20.692;2023-12-22T01:12:05;31.38;;;15.85;;
76850;SDS011;65824;43.726;20.692;2023-12-22T01:14:33;32.13;;;16.23;;
76850;SDS011;65824;43.726;20.692;2023-12-22T01:16:58;30.23;;;14.93;;
76850;SDS011;65824;43.726;20.692;2023-12-22T01:19:27;30.55;;;14.82;;
76850;SDS011;65824;43.726;20.692;2023-12-22T01:21:53;31.38;;;15.27;;
76850;SDS011;65824;43.726;20.692;2023-12-22T01:24:18;29.60;;;15.75;;
76850;SDS011;65824;43.726;20.692;2023-12-22T01:26:46;30.85;;;16.25;;
76850;SDS011;65824;43.726;20.692;2023-12-22T01:29:12;33.33;;;15.38;;
76850;SDS011;65824;43.726;20.692;2023-12-22T01:31:39;26.83;;;15.30;;
76850;SDS011;65824;43.726;20.692;2023-12-22T01:34:05;29.20;;;14.98;;
76850;SDS011;65824;43.726;20.692;2023-12-22T01:36:30;35.03;;;16.15;;
76850;SDS011;65824;43.726;20.692;2023-12-22T01:38:56;27.55;;;14.88;;
76850;SDS011;65824;43.726;20.692;2023-12-22T01:41:21;32.33;;;15.10;;
76850;SDS011;65824;43.726;20.692;2023-12-22T01:43:47;26.63;;;14.35;;
76850;SDS011;65824;43.726;20.692;2023-12-22T01:46:12;29.63;;;15.57;;
76850;SDS011;65824;43.726;20.692;2023-12-22T01:48:38;29.55;;;16.20;;
76850;SDS011;65824;43.726;20.692;2023-12-22T01:51:04;26.33;;;14.35;;
76850;SDS011;65824;43.726;20.692;2023-12-22T01:53:29;23.73;;;13.45;;
76850;SDS011;65824;43.726;20.692;2023-12-22T01:55:55;27.17;;;13.85;;
76850;SDS011;65824;43.726;20.692;2023-12-22T01:58:24;32.95;;;15.02;;
76850;SDS011;65824;43.726;20.692;2023-12-22T02:00:53;28.00;;;13.93;;
76850;SDS011;65824;43.726;20.692;2023-12-22T02:03:19;26.15;;;14.15;;
76850;SDS011;65824;43.726;20.692;2023-12-22T02:05:45;35.58;;;15.65;;
76850;SDS011;65824;43.726;20.692;2023-12-22T02:08:11;28.83;;;14.88;;
76850;SDS011;65824;43.726;20.692;2023-12-22T02:10:37;25.48;;;14.10;;
76850;SDS011;65824;43.726;20.692;2023-12-22T02:13:04;26.85;;;13.93;;
76850;SDS011;65824;43.726;20.692;2023-12-22T02:15:30;28.38;;;14.95;;
76850;SDS011;65824;43.726;20.692;2023-12-22T02:18:04;28.00;;;14.90;;
76850;SDS011;65824;43.726;20.692;2023-12-22T02:20:33;29.02;;;14.98;;
76850;SDS011;65824;43.726;20.692;2023-12-22T02:23:00;27.25;;;15.30;;
76850;SDS011;65824;43.726;20.692;2023-12-22T02:25:25;33.63;;;15.88;;
76850;SDS011;65824;43.726;20.692;2023-12-22T02:27:57;30.65;;;15.95;;
76850;SDS011;65824;43.726;20.692;2023-12-22T02:33:13;32.33;;;15.23;;
76850;SDS011;65824;43.726;20.692;2023-12-22T02:35:40;30.63;;;15.30;;
76850;SDS011;65824;43.726;20.692;2023-12-22T02:38:07;30.63;;;15.77;;
76850;SDS011;65824;43.726;20.692;2023-12-22T02:40:33;27.95;;;14.82;;
76850;SDS011;65824;43.726;20.692;2023-12-22T02:42:59;27.90;;;15.02;;
76850;SDS011;65824;43.726;20.692;2023-12-22T02:45:27;26.42;;;14.93;;
76850;SDS011;65824;43.726;20.692;2023-12-22T02:47:55;26.90;;;15.15;;
76850;SDS011;65824;43.726;20.692;2023-12-22T02:50:20;27.58;;;14.80;;
76850;SDS011;65824;43.726;20.692;2023-12-22T02:52:46;29.38;;;14.82;;
76850;SDS011;65824;43.726;20.692;2023-12-22T02:55:14;27.83;;;14.75;;
76850;SDS011;65824;43.726;20.692;2023-12-22T02:57:40;27.30;;;15.13;;
76850;SDS011;65824;43.726;20.692;2023-12-22T03:00:06;28.98;;;15.68;;
76850;SDS011;65824;43.726;20.692;2023-12-22T03:02:32;33.30;;;15.32;;
76850;SDS011;65824;43.726;20.692;2023-12-22T03:04:58;32.90;;;17.90;;
76850;SDS011;65824;43.726;20.692;2023-12-22T03:07:23;29.02;;;16.17;;
76850;SDS011;65824;43.726;20.692;2023-12-22T03:09:49;31.20;;;15.70;;
76850;SDS011;65824;43.726;20.692;2023-12-22T03:12:15;36.90;;;16.83;;
76850;SDS011;65824;43.726;20.692;2023-12-22T03:14:40;31.73;;;16.52;;
76850;SDS011;65824;43.726;20.692;2023-12-22T03:17:06;35.83;;;16.35;;
76850;SDS011;65824;43.726;20.692;2023-12-22T03:19:34;32.47;;;17.33;;
76850;SDS011;65824;43.726;20.692;2023-12-22T03:22:01;30.70;;;16.67;;
76850;SDS011;65824;43.726;20.692;2023-12-22T03:24:26;39.42;;;20.25;;
76850;SDS011;65824;43.726;20.692;2023-12-22T03:26:53;40.10;;;19.70;;
76850;SDS011;65824;43.726;20.692;2023-12-22T03:29:20;40.60;;;21.13;;
76850;SDS011;65824;43.726;20.692;2023-12-22T03:31:46;55.63;;;27.90;;
76850;SDS011;65824;43.726;20.692;2023-12-22T03:34:11;63.22;;;28.55;;
76850;SDS011;65824;43.726;20.692;2023-12-22T03:36:37;55.90;;;27.83;;
76850;SDS011;65824;43.726;20.692;2023-12-22T03:39:03;55.45;;;28.13;;
76850;SDS011;65824;43.726;20.692;2023-12-22T03:41:29;49.45;;;24.65;;
76850;SDS011;65824;43.726;20.692;2023-12-22T03:43:58;50.95;;;24.20;;
76850;SDS011;65824;43.726;20.692;2023-12-22T03:46:23;48.95;;;25.10;;
76850;SDS011;65824;43.726;20.692;2023-12-22T03:48:52;46.90;;;25.80;;
76850;SDS011;65824;43.726;20.692;2023-12-22T03:51:19;40.25;;;23.17;;
76850;SDS011;65824;43.726;20.692;2023-12-22T03:53:45;40.22;;;21.60;;
76850;SDS011;65824;43.726;20.692;2023-12-22T03:56:11;39.55;;;21.90;;
76850;SDS011;65824;43.726;20.692;2023-12-22T03:58:36;36.85;;;19.60;;
76850;SDS011;65824;43.726;20.692;2023-12-22T04:01:02;39.47;;;20.60;;
76850;SDS011;65824;43.726;20.692;2023-12-22T04:03:29;37.30;;;20.27;;
76850;SDS011;65824;43.726;20.692;2023-12-22T04:05:55;38.30;;;19.48;;
76850;SDS011;65824;43.726;20.692;2023-12-22T04:08:20;35.47;;;18.88;;
76850;SDS011;65824;43.726;20.692;2023-12-22T04:10:46;34.47;;;20.67;;
76850;SDS011;65824;43.726;20.692;2023-12-22T04:13:12;39.25;;;21.90;;
76850;SDS011;65824;43.726;20.692;2023-12-22T04:15:38;49.22;;;23.25;;
76850;SDS011;65824;43.726;20.692;2023-12-22T04:18:04;40.58;;;22.73;;
76850;SDS011;65824;43.726;20.692;2023-12-22T04:20:30;40.67;;;20.38;;
76850;SDS011;65824;43.726;20.692;2023-12-22T04:22:55;32.42;;;18.55;;
76850;SDS011;65824;43.726;20.692;2023-12-22T04:25:21;26.40;;;13.50;;
76850;SDS011;65824;43.726;20.692;2023-12-22T04:27:48;16.67;;;8.23;;
76850;SDS011;65824;43.726;20.692;2023-12-22T04:30:15;12.30;;;6.68;;
76850;SDS011;65824;43.726;20.692;2023-12-22T04:32:41;7.65;;;4.50;;
76850;SDS011;65824;43.726;20.692;2023-12-22T04:35:06;8.98;;;4.38;;
76850;SDS011;65824;43.726;20.692;2023-12-22T04:37:32;8.73;;;4.22;;
76850;SDS011;65824;43.726;20.692;2023-12-22T04:39:58;10.32;;;5.70;;
76850;SDS011;65824;43.726;20.692;2023-12-22T04:42:23;10.63;;;5.55;;
76850;SDS011;65824;43.726;20.692;2023-12-22T04:44:50;9.93;;;4.95;;
76850;SDS011;65824;43.726;20.692;2023-12-22T04:47:17;10.07;;;5.05;;
76850;SDS011;65824;43.726;20.692;2023-12-22T04:49:44;9.30;;;5.22;;
76850;SDS011;65824;43.726;20.692;2023-12-22T04:52:10;13.18;;;6.45;;
76850;SDS011;65824;43.726;20.692;2023-12-22T04:54:36;12.57;;;7.38;;
76850;SDS011;65824;43.726;20.692;2023-12-22T04:57:02;15.05;;;8.27;;
76850;SDS011;65824;43.726;20.692;2023-12-22T04:59:28;15.00;;;7.85;;
76850;SDS011;65824;43.726;20.692;2023-12-22T05:01:53;15.10;;;8.68;;
76850;SDS011;65824;43.726;20.692;2023-12-22T05:04:19;16.23;;;9.18;;
76850;SDS011;65824;43.726;20.692;2023-12-22T05:06:44;16.73;;;9.55;;
76850;SDS011;65824;43.726;20.692;2023-12-22T05:09:10;15.30;;;8.50;;
76850;SDS011;65824;43.726;20.692;2023-12-22T05:11:39;13.63;;;8.30;;
76850;SDS011;65824;43.726;20.692;2023-12-22T05:14:04;17.27;;;9.13;;
76850;SDS011;65824;43.726;20.692;2023-12-22T05:16:30;17.35;;;9.43;;
76850;SDS011;65824;43.726;20.692;2023-12-22T05:18:59;15.50;;;8.57;;
76850;SDS011;65824;43.726;20.692;2023-12-22T05:21:24;12.57;;;8.88;;
76850;SDS011;65824;43.726;20.692;2023-12-22T05:23:50;13.75;;;8.10;;
76850;SDS011;65824;43.726;20.692;2023-12-22T05:26:16;14.57;;;8.25;;
76850;SDS011;65824;43.726;20.692;2023-12-22T05:28:43;14.43;;;7.70;;
76850;SDS011;65824;43.726;20.692;2023-12-22T05:31:09;13.70;;;6.95;;
76850;SDS011;65824;43.726;20.692;2023-12-22T05:33:35;16.05;;;8.82;;
76850;SDS011;65824;43.726;20.692;2023-12-22T05:36:00;15.52;;;9.27;;
76850;SDS011;65824;43.726;20.692;2023-12-22T05:38:26;14.52;;;8.75;;
76850;SDS011;65824;43.726;20.692;2023-12-22T05:40:53;16.92;;;10.00;;
76850;SDS011;65824;43.726;20.692;2023-12-22T05:43:18;21.95;;;12.60;;
76850;SDS011;65824;43.726;20.692;2023-12-22T05:45:44;23.38;;;12.80;;
76850;SDS011;65824;43.726;20.692;2023-12-22T05:48:10;23.83;;;13.52;;
76850;SDS011;65824;43.726;20.692;2023-12-22T05:50:36;25.08;;;13.63;;
76850;SDS011;65824;43.726;20.692;2023-12-22T05:53:03;25.58;;;14.43;;
76850;SDS011;65824;43.726;20.692;2023-12-22T05:55:29;23.33;;;13.35;;
76850;SDS011;65824;43.726;20.692;2023-12-22T05:57:55;26.13;;;14.05;;
76850;SDS011;65824;43.726;20.692;2023-12-22T06:00:20;25.95;;;14.07;;
76850;SDS011;65824;43.726;20.692;2023-12-22T06:02:46;24.65;;;12.68;;
76850;SDS011;65824;43.726;20.692;2023-12-22T06:05:13;18.83;;;12.65;;
76850;SDS011;65824;43.726;20.692;2023-12-22T06:07:40;21.48;;;12.95;;
76850;SDS011;65824;43.726;20.692;2023-12-22T06:10:06;20.67;;;12.30;;
76850;SDS011;65824;43.726;20.692;2023-12-22T06:12:32;25.42;;;13.02;;
76850;SDS011;65824;43.726;20.692;2023-12-22T06:14:57;24.33;;;13.50;;
76850;SDS011;65824;43.726;20.692;2023-12-22T06:17:24;26.10;;;14.65;;
76850;SDS011;65824;43.726;20.692;2023-12-22T06:19:49;23.10;;;14.35;;
76850;SDS011;65824;43.726;20.692;2023-12-22T06:22:15;23.70;;;14.90;;
76850;SDS011;65824;43.726;20.692;2023-12-22T06:24:40;23.30;;;14.60;;
76850;SDS011;65824;43.726;20.692;2023-12-22T06:27:06;22.15;;;14.15;;
76850;SDS011;65824;43.726;20.692;2023-12-22T06:29:32;22.27;;;13.20;;
76850;SDS011;65824;43.726;20.692;2023-12-22T06:31:57;23.33;;;13.70;;
76850;SDS011;65824;43.726;20.692;2023-12-22T06:34:23;25.17;;;15.60;;
76850;SDS011;65824;43.726;20.692;2023-12-22T06:36:50;29.58;;;16.40;;
76850;SDS011;65824;43.726;20.692;2023-12-22T06:39:16;24.25;;;14.30;;
76850;SDS011;65824;43.726;20.692;2023-12-22T06:41:42;21.88;;;13.38;;
76850;SDS011;65824;43.726;20.692;2023-12-22T06:44:07;22.13;;;12.68;;
76850;SDS011;65824;43.726;20.692;2023-12-22T06:46:33;21.00;;;12.90;;
76850;SDS011;65824;43.726;20.692;2023-12-22T06:48:58;24.23;;;13.65;;
76850;SDS011;65824;43.726;20.692;2023-12-22T06:51:27;25.95;;;14.15;;
76850;SDS011;65824;43.726;20.692;2023-12-22T06:53:54;26.23;;;14.68;;
76850;SDS011;65824;43.726;20.692;2023-12-22T06:56:24;28.60;;;15.23;;
76850;SDS011;65824;43.726;20.692;2023-12-22T06:58:52;27.33;;;16.63;;
76850;SDS011;65824;43.726;20.692;2023-12-22T07:03:46;21.30;;;12.35;;
76850;SDS011;65824;43.726;20.692;2023-12-22T07:06:14;22.35;;;12.15;;
76850;SDS011;65824;43.726;20.692;2023-12-22T07:08:41;22.60;;;12.10;;
76850;SDS011;65824;43.726;20.692;2023-12-22T07:11:08;20.33;;;11.50;;
76850;SDS011;65824;43.726;20.692;2023-12-22T07:13:34;18.95;;;12.20;;
76850;SDS011;65824;43.726;20.692;2023-12-22T07:16:00;24.33;;;15.15;;
76850;SDS011;65824;43.726;20.692;2023-12-22T07:18:28;23.63;;;15.05;;
76850;SDS011;65824;43.726;20.692;2023-12-22T07:20:59;20.80;;;13.10;;
76850;SDS011;65824;43.726;20.692;2023-12-22T07:23:26;25.50;;;14.98;;
76850;SDS011;65824;43.726;20.692;2023-12-22T07:25:52;22.45;;;14.15;;
76850;SDS011;65824;43.726;20.692;2023-12-22T07:28:17;29.33;;;18.05;;
76850;SDS011;65824;43.726;20.692;2023-12-22T07:30:43;34.00;;;18.90;;
76850;SDS011;65824;43.726;20.692;2023-12-22T07:33:08;32.72;;;20.58;;
76850;SDS011;65824;43.726;20.692;2023-12-22T07:35:34;37.13;;;21.48;;
76850;SDS011;65824;43.726;20.692;2023-12-22T07:37:59;34.92;;;18.90;;
76850;SDS011;65824;43.726;20.692;2023-12-22T07:40:28;27.55;;;16.40;;
76850;SDS011;65824;43.726;20.692;2023-12-22T07:42:57;27.95;;;16.15;;
76850;SDS011;65824;43.726;20.692;2023-12-22T07:45:23;24.10;;;14.48;;
76850;SDS011;65824;43.726;20.692;2023-12-22T07:47:48;20.58;;;12.10;;
76850;SDS011;65824;43.726;20.692;2023-12-22T07:50:14;22.60;;;13.68;;
76850;SDS011;65824;43.726;20.692;2023-12-22T07:52:41;21.35;;;12.50;;
76850;SDS011;65824;43.726;20.692;2023-12-22T07:55:09;20.02;;;11.70;;
76850;SDS011;65824;43.726;20.692;2023-12-22T07:57:35;20.15;;;11.93;;
76850;SDS011;65824;43.726;20.692;2023-12-22T08:00:02;19.30;;;10.43;;
76850;SDS011;65824;43.726;20.692;2023-12-22T08:02:28;20.13;;;10.07;;
76850;SDS011;65824;43.726;20.692;2023-12-22T08:04:56;15.50;;;8.70;;
76850;SDS011;65824;43.726;20.692;2023-12-22T08:07:22;20.55;;;10.88;;
76850;SDS011;65824;43.726;20.692;2023-12-22T08:09:48;22.48;;;13.75;;
76850;SDS011;65824;43.726;20.692;2023-12-22T08:12:13;27.10;;;14.77;;
76850;SDS011;65824;43.726;20.692;2023-12-22T08:14:39;23.13;;;13.27;;
76850;SDS011;65824;43.726;20.692;2023-12-22T08:17:06;26.88;;;14.52;;
76850;SDS011;65824;43.726;20.692;2023-12-22T08:19:32;21.90;;;13.60;;
76850;SDS011;65824;43.726;20.692;2023-12-22T08:21:58;24.27;;;13.23;;
76850;SDS011;65824;43.726;20.692;2023-12-22T08:24:25;23.40;;;14.50;;
76850;SDS011;65824;43.726;20.692;2023-12-22T08:26:51;25.73;;;15.05;;
76850;SDS011;65824;43.726;20.692;2023-12-22T08:29:16;29.80;;;16.38;;
76850;SDS011;65824;43.726;20.692;2023-12-22T08:31:42;31.55;;;17.45;;
76850;SDS011;65824;43.726;20.692;2023-12-22T08:34:08;28.17;;;16.98;;
76850;SDS011;65824;43.726;20.692;2023-12-22T08:36:34;26.38;;;16.15;;
76850;SDS011;65824;43.726;20.692;2023-12-22T08:38:59;29.90;;;16.75;;
76850;SDS011;65824;43.726;20.692;2023-12-22T08:41:25;23.17;;;13.65;;
76850;SDS011;65824;43.726;20.692;2023-12-22T08:43:51;23.42;;;14.65;;
76850;SDS011;65824;43.726;20.692;2023-12-22T08:46:16;22.80;;;12.93;;
76850;SDS011;65824;43.726;20.692;2023-12-22T08:48:46;20.20;;;12.52;;
76850;SDS011;65824;43.726;20.692;2023-12-22T08:51:11;17.13;;;10.82;;
76850;SDS011;65824;43.726;20.692;2023-12-22T08:53:38;17.38;;;9.73;;
76850;SDS011;65824;43.726;20.692;2023-12-22T08:56:05;16.92;;;9.60;;
76850;SDS011;65824;43.726;20.692;2023-12-22T08:58:32;14.55;;;7.90;;
76850;SDS011;65824;43.726;20.692;2023-12-22T09:00:58;18.75;;;9.90;;
76850;SDS011;65824;43.726;20.692;2023-12-22T09:03:24;19.23;;;11.07;;
76850;SDS011;65824;43.726;20.692;2023-12-22T09:05:51;27.05;;;15.18;;
76850;SDS011;65824;43.726;20.692;2023-12-22T09:08:17;19.15;;;10.77;;
76850;SDS011;65824;43.726;20.692;2023-12-22T09:10:44;17.15;;;9.27;;
76850;SDS011;65824;43.726;20.692;2023-12-22T09:13:10;14.60;;;8.88;;
76850;SDS011;65824;43.726;20.692;2023-12-22T09:15:37;12.43;;;7.55;;
76850;SDS011;65824;43.726;20.692;2023-12-22T09:18:02;14.38;;;7.68;;
76850;SDS011;65824;43.726;20.692;2023-12-22T09:20:28;20.08;;;11.50;;
76850;SDS011;65824;43.726;20.692;2023-12-22T09:22:56;18.77;;;11.43;;
76850;SDS011;65824;43.726;20.692;2023-12-22T09:25:23;19.98;;;11.82;;
76850;SDS011;65824;43.726;20.692;2023-12-22T09:27:49;20.38;;;11.68;;
76850;SDS011;65824;43.726;20.692;2023-12-22T09:30:14;20.30;;;12.05;;
76850;SDS011;65824;43.726;20.692;2023-12-22T09:32:40;19.23;;;13.07;;
76850;SDS011;65824;43.726;20.692;2023-12-22T09:35:05;16.88;;;10.38;;
76850;SDS011;65824;43.726;20.692;2023-12-22T09:37:32;17.25;;;10.05;;
76850;SDS011;65824;43.726;20.692;2023-12-22T09:39:58;15.75;;;9.00;;
76850;SDS011;65824;43.726;20.692;2023-12-22T09:42:23;14.70;;;9.73;;
76850;SDS011;65824;43.726;20.692;2023-12-22T09:44:50;17.25;;;10.07;;
76850;SDS011;65824;43.726;20.692;2023-12-22T09:47:18;16.42;;;10.27;;
76850;SDS011;65824;43.726;20.692;2023-12-22T09:49:45;22.60;;;12.48;;
76850;SDS011;65824;43.726;20.692;2023-12-22T09:52:11;23.00;;;12.75;;
76850;SDS011;65824;43.726;20.692;2023-12-22T09:54:38;26.08;;;14.13;;
76850;SDS011;65824;43.726;20.692;2023-12-22T09:57:04;19.33;;;11.90;;
76850;SDS011;65824;43.726;20.692;2023-12-22T09:59:30;20.45;;;11.65;;
76850;SDS011;65824;43.726;20.692;2023-12-22T10:01:56;20.08;;;11.82;;
76850;SDS011;65824;43.726;20.692;2023-12-22T10:04:22;21.17;;;12.32;;
76850;SDS011;65824;43.726;20.692;2023-12-22T10:06:51;22.42;;;12.68;;
76850;SDS011;65824;43.726;20.692;2023-12-22T10:09:19;24.45;;;13.65;;
76850;SDS011;65824;43.726;20.692;2023-12-22T10:11:44;21.52;;;12.35;;
76850;SDS011;65824;43.726;20.692;2023-12-22T10:14:12;21.73;;;13.13;;
76850;SDS011;65824;43.726;20.692;2023-12-22T10:16:41;23.92;;;13.23;;
76850;SDS011;65824;43.726;20.692;2023-12-22T10:19:06;22.25;;;13.98;;
76850;SDS011;65824;43.726;20.692;2023-12-22T10:21:32;24.65;;;14.02;;
76850;SDS011;65824;43.726;20.692;2023-12-22T10:23:59;27.13;;;15.90;;
76850;SDS011;65824;43.726;20.692;2023-12-22T10:26:24;24.52;;;15.65;;
76850;SDS011;65824;43.726;20.692;2023-12-22T10:28:50;28.77;;;16.38;;
76850;SDS011;65824;43.726;20.692;2023-12-22T10:31:17;23.13;;;14.68;;
76850;SDS011;65824;43.726;20.692;2023-12-22T10:33:43;23.42;;;13.95;;
76850;SDS011;65824;43.726;20.692;2023-12-22T10:36:09;22.00;;;14.05;;
76850;SDS011;65824;43.726;20.692;2023-12-22T10:38:35;24.08;;;13.50;;
76850;SDS011;65824;43.726;20.692;2023-12-22T10:41:04;22.40;;;12.65;;
76850;SDS011;65824;43.726;20.692;2023-12-22T10:43:36;27.65;;;14.02;;
76850;SDS011;65824;43.726;20.692;2023-12-22T10:46:03;33.28;;;17.50;;
76850;SDS011;65824;43.726;20.692;2023-12-22T10:48:29;47.88;;;26.02;;
76850;SDS011;65824;43.726;20.692;2023-12-22T10:50:54;27.80;;;15.48;;
76850;SDS011;65824;43.726;20.692;2023-12-22T10:53:20;20.00;;;11.10;;
76850;SDS011;65824;43.726;20.692;2023-12-22T10:55:46;15.40;;;8.88;;
76850;SDS011;65824;43.726;20.692;2023-12-22T10:58:16;13.68;;;7.75;;
76850;SDS011;65824;43.726;20.692;2023-12-22T11:00:44;10.30;;;5.90;;
76850;SDS011;65824;43.726;20.692;2023-12-22T11:03:12;11.60;;;6.38;;
76850;SDS011;65824;43.726;20.692;2023-12-22T11:05:39;12.77;;;6.45;;
76850;SDS011;65824;43.726;20.692;2023-12-22T11:08:08;14.20;;;7.05;;
76850;SDS011;65824;43.726;20.692;2023-12-22T11:10:41;14.80;;;7.75;;
76850;SDS011;65824;43.726;20.692;2023-12-22T11:13:11;19.13;;;9.02;;
76850;SDS011;65824;43.726;20.692;2023-12-22T11:15:38;20.52;;;11.10;;
76850;SDS011;65824;43.726;20.692;2023-12-22T11:18:05;21.70;;;11.48;;
76850;SDS011;65824;43.726;20.692;2023-12-22T11:20:31;23.23;;;12.07;;
76850;SDS011;65824;43.726;20.692;2023-12-22T11:22:57;22.48;;;12.77;;
76850;SDS011;65824;43.726;20.692;2023-12-22T11:25:24;25.02;;;13.77;;
76850;SDS011;65824;43.726;20.692;2023-12-22T11:27:50;26.08;;;14.23;;
76850;SDS011;65824;43.726;20.692;2023-12-22T11:30:19;27.83;;;14.65;;
76850;SDS011;65824;43.726;20.692;2023-12-22T11:32:45;26.95;;;13.45;;
76850;SDS011;65824;43.726;20.692;2023-12-22T11:35:13;28.65;;;14.65;;
76850;SDS011;65824;43.726;20.692;2023-12-22T11:37:39;26.50;;;14.20;;
76850;SDS011;65824;43.726;20.692;2023-12-22T11:40:05;20.10;;;11.98;;
76850;SDS011;65824;43.726;20.692;2023-12-22T11:42:32;22.58;;;14.02;;
76850;SDS011;65824;43.726;20.692;2023-12-22T11:45:01;26.98;;;14.95;;
76850;SDS011;65824;43.726;20.692;2023-12-22T11:47:27;31.33;;;16.05;;
76850;SDS011;65824;43.726;20.692;2023-12-22T11:49:55;27.90;;;15.98;;
76850;SDS011;65824;43.726;20.692;2023-12-22T11:52:27;28.52;;;15.05;;
76850;SDS011;65824;43.726;20.692;2023-12-22T11:54:57;24.92;;;14.27;;
76850;SDS011;65824;43.726;20.692;2023-12-22T11:57:36;24.83;;;14.77;;
76850;SDS011;65824;43.726;20.692;2023-12-22T12:02:36;28.45;;;15.48;;
76850;SDS011;65824;43.726;20.692;2023-12-22T12:05:03;25.65;;;15.18;;
76850;SDS011;65824;43.726;20.692;2023-12-22T12:07:41;25.70;;;14.75;;
76850;SDS011;65824;43.726;20.692;2023-12-22T12:10:11;24.67;;;14.65;;
76850;SDS011;65824;43.726;20.692;2023-12-22T12:12:37;17.73;;;10.43;;
76850;SDS011;65824;43.726;20.692;2023-12-22T12:15:08;15.65;;;8.75;;
76850;SDS011;65824;43.726;20.692;2023-12-22T12:17:40;13.88;;;7.05;;
76850;SDS011;65824;43.726;20.692;2023-12-22T12:20:06;15.75;;;7.03;;
76850;SDS011;65824;43.726;20.692;2023-12-22T12:22:33;14.80;;;6.68;;
76850;SDS011;65824;43.726;20.692;2023-12-22T12:24:59;13.07;;;5.78;;
76850;SDS011;65824;43.726;20.692;2023-12-22T12:27:26;10.52;;;5.50;;
76850;SDS011;65824;43.726;20.692;2023-12-22T12:29:52;10.95;;;5.90;;
76850;SDS011;65824;43.726;20.692;2023-12-22T12:32:30;12.82;;;6.65;;
76850;SDS011;65824;43.726;20.692;2023-12-22T12:34:56;12.75;;;6.75;;
76850;SDS011;65824;43.726;20.692;2023-12-22T12:37:22;10.23;;;5.50;;
76850;SDS011;65824;43.726;20.692;2023-12-22T12:39:48;11.52;;;6.75;;
76850;SDS011;65824;43.726;20.692;2023-12-22T12:42:14;10.27;;;6.07;;
76850;SDS011;65824;43.726;20.692;2023-12-22T12:44:42;11.27;;;6.32;;
76850;SDS011;65824;43.726;20.692;2023-12-22T12:47:14;11.10;;;5.85;;
76850;SDS011;65824;43.726;20.692;2023-12-22T12:49:41;8.35;;;5.25;;
76850;SDS011;65824;43.726;20.692;2023-12-22T12:52:11;9.48;;;4.97;;
76850;SDS011;65824;43.726;20.692;2023-12-22T12:54:38;10.07;;;5.25;;
76850;SDS011;65824;43.726;20.692;2023-12-22T12:57:04;11.52;;;4.72;;
76850;SDS011;65824;43.726;20.692;2023-12-22T12:59:32;7.50;;;3.90;;
76850;SDS011;65824;43.726;20.692;2023-12-22T13:01:58;9.85;;;4.35;;
76850;SDS011;65824;43.726;20.692;2023-12-22T13:04:36;7.05;;;3.90;;
76850;SDS011;65824;43.726;20.692;2023-12-22T13:07:05;8.07;;;3.72;;
76850;SDS011;65824;43.726;20.692;2023-12-22T13:09:33;5.85;;;3.15;;
76850;SDS011;65824;43.726;20.692;2023-12-22T13:11:59;8.20;;;3.35;;
76850;SDS011;65824;43.726;20.692;2023-12-22T13:14:25;8.07;;;3.47;;
76850;SDS011;65824;43.726;20.692;2023-12-22T13:16:54;8.75;;;4.03;;
76850;SDS011;65824;43.726;20.692;2023-12-22T13:19:21;10.35;;;4.20;;
76850;SDS011;65824;43.726;20.692;2023-12-22T13:21:54;11.05;;;4.65;;
76850;SDS011;65824;43.726;20.692;2023-12-22T13:24:20;10.68;;;5.03;;
76850;SDS011;65824;43.726;20.692;2023-12-22T13:26:58;10.35;;;5.20;;
76850;SDS011;65824;43.726;20.692;2023-12-22T13:29:24;15.52;;;7.03;;
76850;SDS011;65824;43.726;20.692;2023-12-22T13:31:50;13.25;;;6.22;;
76850;SDS011;65824;43.726;20.692;2023-12-22T13:34:15;12.07;;;6.53;;
76850;SDS011;65824;43.726;20.692;2023-12-22T13:36:41;12.48;;;6.50;;
76850;SDS011;65824;43.726;20.692;2023-12-22T13:39:08;12.57;;;7.22;;
76850;SDS011;65824;43.726;20.692;2023-12-22T13:41:39;17.25;;;8.60;;
76850;SDS011;65824;43.726;20.692;2023-12-22T13:44:07;17.42;;;10.80;;
76850;SDS011;65824;43.726;20.692;2023-12-22T13:46:33;23.13;;;12.32;;
76850;SDS011;65824;43.726;20.692;2023-12-22T13:49:01;31.75;;;14.27;;
76850;SDS011;65824;43.726;20.692;2023-12-22T13:51:27;26.05;;;12.98;;
76850;SDS011;65824;43.726;20.692;2023-12-22T13:54:06;25.85;;;13.38;;
76850;SDS011;65824;43.726;20.692;2023-12-22T13:56:38;23.55;;;13.90;;
76850;SDS011;65824;43.726;20.692;2023-12-22T13:59:08;29.15;;;15.68;;
76850;SDS011;65824;43.726;20.692;2023-12-22T14:01:35;31.35;;;17.90;;
76850;SDS011;65824;43.726;20.692;2023-12-22T14:04:00;30.60;;;16.60;;
76850;SDS011;65824;43.726;20.692;2023-12-22T14:06:28;42.55;;;20.88;;
76850;SDS011;65824;43.726;20.692;2023-12-22T14:08:54;35.53;;;20.35;;
76850;SDS011;65824;43.726;20.692;2023-12-22T14:11:21;45.38;;;25.70;;
76850;SDS011;65824;43.726;20.692;2023-12-22T14:13:47;32.28;;;18.80;;
76850;SDS011;65824;43.726;20.692;2023-12-22T14:16:14;30.48;;;17.83;;
76850;SDS011;65824;43.726;20.692;2023-12-22T14:18:40;35.00;;;20.25;;